sensor_id;sensor_type;location;lat;lon;timestamp;P1;durP1;ratioP1;P2;durP2;ratioP2
16979;SDS011;42288;52.182;21.156;2022-08-19T00:02:22;15.17;;;10.17;;
16979;SDS011;42288;52.182;21.156;2022-08-19T00:04:48;12.83;;;9.57;;
16979;SDS011;42288;52.182;21.156;2022-08-19T00:07:17;13.53;;;10.07;;
16979;SDS011;42288;52.182;21.156;2022-08-19T00:09:43;16.20;;;10.57;;
16979;SDS011;42288;52.182;21.156;2022-08-19T00:12:09;14.23;;;9.63;;
16979;SDS011;42288;52.182;21.156;2022-08-19T00:14:35;12.57;;;10.40;;
16979;SDS011;42288;52.182;21.156;2022-08-19T00:17:01;15.80;;;9.87;;
16979;SDS011;42288;52.182;21.156;2022-08-19T00:19:27;14.27;;;9.80;;
16979;SDS011;42288;52.182;21.156;2022-08-19T00:21:53;16.43;;;10.43;;
16979;SDS011;42288;52.182;21.156;2022-08-19T00:24:19;13.43;;;9.93;;
16979;SDS011;42288;52.182;21.156;2022-08-19T00:26:45;17.70;;;10.90;;
16979;SDS011;42288;52.182;21.156;2022-08-19T00:29:11;17.97;;;10.70;;
16979;SDS011;42288;52.182;21.156;2022-08-19T00:31:38;16.20;;;10.30;;
16979;SDS011;42288;52.182;21.156;2022-08-19T00:34:04;11.93;;;9.80;;
16979;SDS011;42288;52.182;21.156;2022-08-19T00:36:29;15.13;;;11.90;;
16979;SDS011;42288;52.182;21.156;2022-08-19T00:38:56;12.67;;;9.63;;
16979;SDS011;42288;52.182;21.156;2022-08-19T00:41:23;16.90;;;9.93;;
16979;SDS011;42288;52.182;21.156;2022-08-19T00:44:00;13.20;;;8.93;;
16979;SDS011;42288;52.182;21.156;2022-08-19T00:46:31;13.37;;;9.53;;
16979;SDS011;42288;52.182;21.156;2022-08-19T00:48:58;14.27;;;10.13;;
16979;SDS011;42288;52.182;21.156;2022-08-19T00:51:25;17.10;;;10.80;;
16979;SDS011;42288;52.182;21.156;2022-08-19T00:53:54;17.23;;;10.37;;
16979;SDS011;42288;52.182;21.156;2022-08-19T00:56:21;16.57;;;10.50;;
16979;SDS011;42288;52.182;21.156;2022-08-19T00:58:48;14.73;;;9.70;;
16979;SDS011;42288;52.182;21.156;2022-08-19T01:01:14;16.13;;;10.40;;
16979;SDS011;42288;52.182;21.156;2022-08-19T01:03:39;12.17;;;9.63;;
16979;SDS011;42288;52.182;21.156;2022-08-19T01:06:05;14.20;;;10.33;;
16979;SDS011;42288;52.182;21.156;2022-08-19T01:08:31;14.50;;;9.70;;
16979;SDS011;42288;52.182;21.156;2022-08-19T01:10:58;13.50;;;9.63;;
16979;SDS011;42288;52.182;21.156;2022-08-19T01:13:25;12.50;;;10.10;;
16979;SDS011;42288;52.182;21.156;2022-08-19T01:15:56;13.33;;;10.20;;
16979;SDS011;42288;52.182;21.156;2022-08-19T01:18:25;14.33;;;10.40;;
16979;SDS011;42288;52.182;21.156;2022-08-19T01:20:53;11.30;;;9.60;;
16979;SDS011;42288;52.182;21.156;2022-08-19T01:23:20;17.53;;;10.80;;
16979;SDS011;42288;52.182;21.156;2022-08-19T01:25:47;14.20;;;10.70;;
16979;SDS011;42288;52.182;21.156;2022-08-19T01:28:23;12.77;;;9.60;;
16979;SDS011;42288;52.182;21.156;2022-08-19T01:30:51;13.50;;;10.50;;
16979;SDS011;42288;52.182;21.156;2022-08-19T01:33:17;16.27;;;11.47;;
16979;SDS011;42288;52.182;21.156;2022-08-19T01:35:44;13.50;;;10.17;;
16979;SDS011;42288;52.182;21.156;2022-08-19T01:38:18;14.63;;;10.40;;
16979;SDS011;42288;52.182;21.156;2022-08-19T01:40:47;13.37;;;9.77;;
16979;SDS011;42288;52.182;21.156;2022-08-19T01:43:13;14.77;;;9.93;;
16979;SDS011;42288;52.182;21.156;2022-08-19T01:45:39;12.27;;;9.80;;
16979;SDS011;42288;52.182;21.156;2022-08-19T01:48:05;14.27;;;9.93;;
16979;SDS011;42288;52.182;21.156;2022-08-19T01:50:34;16.10;;;10.23;;
16979;SDS011;42288;52.182;21.156;2022-08-19T01:53:01;15.07;;;10.33;;
16979;SDS011;42288;52.182;21.156;2022-08-19T01:55:28;14.10;;;10.40;;
16979;SDS011;42288;52.182;21.156;2022-08-19T01:57:55;17.43;;;10.27;;
16979;SDS011;42288;52.182;21.156;2022-08-19T02:00:25;13.33;;;10.37;;
16979;SDS011;42288;52.182;21.156;2022-08-19T02:02:52;17.17;;;10.40;;
16979;SDS011;42288;52.182;21.156;2022-08-19T02:05:19;15.60;;;12.33;;
16979;SDS011;42288;52.182;21.156;2022-08-19T02:07:46;14.07;;;10.97;;
16979;SDS011;42288;52.182;21.156;2022-08-19T02:10:14;18.93;;;10.80;;
16979;SDS011;42288;52.182;21.156;2022-08-19T02:12:42;17.93;;;10.87;;
16979;SDS011;42288;52.182;21.156;2022-08-19T02:15:07;16.50;;;11.60;;
16979;SDS011;42288;52.182;21.156;2022-08-19T02:17:33;19.40;;;11.27;;
16979;SDS011;42288;52.182;21.156;2022-08-19T02:19:59;16.87;;;10.43;;
16979;SDS011;42288;52.182;21.156;2022-08-19T02:22:25;16.17;;;10.37;;
16979;SDS011;42288;52.182;21.156;2022-08-19T02:24:51;14.60;;;10.70;;
16979;SDS011;42288;52.182;21.156;2022-08-19T02:27:17;15.63;;;10.40;;
16979;SDS011;42288;52.182;21.156;2022-08-19T02:29:43;14.17;;;10.77;;
16979;SDS011;42288;52.182;21.156;2022-08-19T02:32:12;19.70;;;11.67;;
16979;SDS011;42288;52.182;21.156;2022-08-19T02:34:38;15.07;;;11.03;;
16979;SDS011;42288;52.182;21.156;2022-08-19T02:37:04;21.57;;;11.47;;
16979;SDS011;42288;52.182;21.156;2022-08-19T02:39:29;16.93;;;11.20;;
16979;SDS011;42288;52.182;21.156;2022-08-19T02:41:55;19.27;;;11.27;;
16979;SDS011;42288;52.182;21.156;2022-08-19T02:44:20;17.33;;;11.23;;
16979;SDS011;42288;52.182;21.156;2022-08-19T02:46:46;15.40;;;10.57;;
16979;SDS011;42288;52.182;21.156;2022-08-19T02:49:13;16.17;;;11.43;;
16979;SDS011;42288;52.182;21.156;2022-08-19T02:51:41;16.33;;;10.70;;
16979;SDS011;42288;52.182;21.156;2022-08-19T02:54:08;18.87;;;11.20;;
16979;SDS011;42288;52.182;21.156;2022-08-19T02:56:35;14.63;;;11.23;;
16979;SDS011;42288;52.182;21.156;2022-08-19T02:59:02;14.33;;;11.17;;
16979;SDS011;42288;52.182;21.156;2022-08-19T03:01:31;13.27;;;11.33;;
16979;SDS011;42288;52.182;21.156;2022-08-19T03:03:58;18.67;;;11.57;;
16979;SDS011;42288;52.182;21.156;2022-08-19T03:06:29;18.73;;;10.97;;
16979;SDS011;42288;52.182;21.156;2022-08-19T03:08:54;17.50;;;11.43;;
16979;SDS011;42288;52.182;21.156;2022-08-19T03:11:22;15.83;;;11.80;;
16979;SDS011;42288;52.182;21.156;2022-08-19T03:13:50;18.93;;;12.27;;
16979;SDS011;42288;52.182;21.156;2022-08-19T03:16:16;15.90;;;11.60;;
16979;SDS011;42288;52.182;21.156;2022-08-19T03:18:42;18.27;;;11.80;;
16979;SDS011;42288;52.182;21.156;2022-08-19T03:21:08;15.53;;;11.30;;
16979;SDS011;42288;52.182;21.156;2022-08-19T03:46:47;15.63;;;11.53;;
16979;SDS011;42288;52.182;21.156;2022-08-19T03:49:15;16.50;;;11.70;;
16979;SDS011;42288;52.182;21.156;2022-08-19T03:51:41;19.90;;;11.13;;
16979;SDS011;42288;52.182;21.156;2022-08-19T03:54:08;17.57;;;12.13;;
16979;SDS011;42288;52.182;21.156;2022-08-19T03:56:37;15.97;;;11.90;;
16979;SDS011;42288;52.182;21.156;2022-08-19T03:59:04;18.17;;;12.40;;
16979;SDS011;42288;52.182;21.156;2022-08-19T04:01:31;16.10;;;11.63;;
16979;SDS011;42288;52.182;21.156;2022-08-19T04:03:58;16.97;;;10.80;;
16979;SDS011;42288;52.182;21.156;2022-08-19T04:06:25;13.70;;;10.90;;
16979;SDS011;42288;52.182;21.156;2022-08-19T04:08:54;20.03;;;12.50;;
16979;SDS011;42288;52.182;21.156;2022-08-19T04:11:22;20.23;;;11.20;;
16979;SDS011;42288;52.182;21.156;2022-08-19T04:13:50;18.57;;;11.90;;
16979;SDS011;42288;52.182;21.156;2022-08-19T04:16:17;15.13;;;11.13;;
16979;SDS011;42288;52.182;21.156;2022-08-19T04:18:45;14.73;;;10.57;;
16979;SDS011;42288;52.182;21.156;2022-08-19T04:21:15;16.37;;;10.87;;
16979;SDS011;42288;52.182;21.156;2022-08-19T04:23:42;16.97;;;11.40;;
16979;SDS011;42288;52.182;21.156;2022-08-19T04:26:11;16.13;;;11.37;;
16979;SDS011;42288;52.182;21.156;2022-08-19T04:28:39;13.97;;;10.57;;
16979;SDS011;42288;52.182;21.156;2022-08-19T04:31:04;16.33;;;10.97;;
16979;SDS011;42288;52.182;21.156;2022-08-19T04:33:30;15.57;;;10.93;;
16979;SDS011;42288;52.182;21.156;2022-08-19T04:35:55;16.90;;;11.30;;
16979;SDS011;42288;52.182;21.156;2022-08-19T04:38:23;16.33;;;11.13;;
16979;SDS011;42288;52.182;21.156;2022-08-19T04:40:50;13.33;;;10.43;;
16979;SDS011;42288;52.182;21.156;2022-08-19T04:43:36;17.97;;;10.23;;
16979;SDS011;42288;52.182;21.156;2022-08-19T04:46:06;17.93;;;10.83;;
16979;SDS011;42288;52.182;21.156;2022-08-19T04:48:34;12.93;;;9.57;;
16979;SDS011;42288;52.182;21.156;2022-08-19T04:51:00;17.13;;;11.20;;
16979;SDS011;42288;52.182;21.156;2022-08-19T04:53:27;14.53;;;10.17;;
16979;SDS011;42288;52.182;21.156;2022-08-19T04:55:58;13.57;;;9.53;;
16979;SDS011;42288;52.182;21.156;2022-08-19T04:58:25;24.67;;;11.20;;
16979;SDS011;42288;52.182;21.156;2022-08-19T05:00:52;20.03;;;10.60;;
16979;SDS011;42288;52.182;21.156;2022-08-19T05:03:18;16.57;;;11.30;;
16979;SDS011;42288;52.182;21.156;2022-08-19T05:05:45;14.60;;;10.43;;
16979;SDS011;42288;52.182;21.156;2022-08-19T05:08:13;18.40;;;10.17;;
16979;SDS011;42288;52.182;21.156;2022-08-19T05:10:44;13.27;;;10.07;;
16979;SDS011;42288;52.182;21.156;2022-08-19T05:13:10;19.97;;;11.00;;
16979;SDS011;42288;52.182;21.156;2022-08-19T05:15:36;15.33;;;10.40;;
16979;SDS011;42288;52.182;21.156;2022-08-19T05:18:02;15.57;;;10.07;;
16979;SDS011;42288;52.182;21.156;2022-08-19T05:20:46;18.17;;;10.23;;
16979;SDS011;42288;52.182;21.156;2022-08-19T05:23:30;15.23;;;9.77;;
16979;SDS011;42288;52.182;21.156;2022-08-19T05:25:55;19.83;;;10.70;;
16979;SDS011;42288;52.182;21.156;2022-08-19T05:28:21;14.80;;;10.37;;
16979;SDS011;42288;52.182;21.156;2022-08-19T05:30:46;15.33;;;9.97;;
16979;SDS011;42288;52.182;21.156;2022-08-19T05:33:13;20.03;;;10.33;;
16979;SDS011;42288;52.182;21.156;2022-08-19T05:35:39;22.83;;;10.53;;
16979;SDS011;42288;52.182;21.156;2022-08-19T05:38:05;17.30;;;9.70;;
16979;SDS011;42288;52.182;21.156;2022-08-19T05:40:36;16.40;;;10.33;;
16979;SDS011;42288;52.182;21.156;2022-08-19T05:43:03;14.13;;;9.33;;
16979;SDS011;42288;52.182;21.156;2022-08-19T05:45:30;17.93;;;9.87;;
16979;SDS011;42288;52.182;21.156;2022-08-19T05:47:56;15.50;;;9.20;;
16979;SDS011;42288;52.182;21.156;2022-08-19T05:50:23;14.90;;;9.80;;
16979;SDS011;42288;52.182;21.156;2022-08-19T05:52:50;16.90;;;10.13;;
16979;SDS011;42288;52.182;21.156;2022-08-19T05:55:15;14.30;;;9.87;;
16979;SDS011;42288;52.182;21.156;2022-08-19T05:57:41;14.17;;;9.33;;
16979;SDS011;42288;52.182;21.156;2022-08-19T06:00:06;17.23;;;9.77;;
16979;SDS011;42288;52.182;21.156;2022-08-19T06:02:35;15.13;;;9.43;;
16979;SDS011;42288;52.182;21.156;2022-08-19T06:05:01;17.80;;;9.48;;
16979;SDS011;42288;52.182;21.156;2022-08-19T06:07:27;16.27;;;9.93;;
16979;SDS011;42288;52.182;21.156;2022-08-19T06:09:53;17.07;;;9.67;;
16979;SDS011;42288;52.182;21.156;2022-08-19T06:12:20;16.40;;;9.73;;
16979;SDS011;42288;52.182;21.156;2022-08-19T06:14:51;16.87;;;9.57;;
16979;SDS011;42288;52.182;21.156;2022-08-19T06:17:19;16.57;;;9.90;;
16979;SDS011;42288;52.182;21.156;2022-08-19T06:19:47;15.50;;;9.43;;
16979;SDS011;42288;52.182;21.156;2022-08-19T06:22:14;22.90;;;9.47;;
16979;SDS011;42288;52.182;21.156;2022-08-19T06:24:40;21.50;;;10.20;;
16979;SDS011;42288;52.182;21.156;2022-08-19T06:27:06;26.37;;;10.07;;
16979;SDS011;42288;52.182;21.156;2022-08-19T06:29:32;23.97;;;9.30;;
16979;SDS011;42288;52.182;21.156;2022-08-19T06:31:59;15.93;;;9.17;;
16979;SDS011;42288;52.182;21.156;2022-08-19T06:34:26;20.50;;;9.30;;
16979;SDS011;42288;52.182;21.156;2022-08-19T06:36:54;14.97;;;8.77;;
16979;SDS011;42288;52.182;21.156;2022-08-19T06:39:21;15.57;;;8.50;;
16979;SDS011;42288;52.182;21.156;2022-08-19T06:41:51;15.77;;;9.37;;
16979;SDS011;42288;52.182;21.156;2022-08-19T06:44:19;12.80;;;8.97;;
16979;SDS011;42288;52.182;21.156;2022-08-19T06:46:46;13.63;;;9.67;;
16979;SDS011;42288;52.182;21.156;2022-08-19T06:49:13;16.30;;;8.43;;
16979;SDS011;42288;52.182;21.156;2022-08-19T06:51:40;12.13;;;8.70;;
16979;SDS011;42288;52.182;21.156;2022-08-19T06:54:10;14.83;;;9.33;;
16979;SDS011;42288;52.182;21.156;2022-08-19T06:56:36;13.83;;;9.30;;
16979;SDS011;42288;52.182;21.156;2022-08-19T06:59:03;19.50;;;9.40;;
16979;SDS011;42288;52.182;21.156;2022-08-19T07:01:37;15.87;;;10.07;;
16979;SDS011;42288;52.182;21.156;2022-08-19T07:04:08;11.30;;;8.77;;
16979;SDS011;42288;52.182;21.156;2022-08-19T07:06:35;18.10;;;9.43;;
16979;SDS011;42288;52.182;21.156;2022-08-19T07:09:01;16.83;;;9.82;;
16979;SDS011;42288;52.182;21.156;2022-08-19T07:11:28;13.13;;;9.43;;
16979;SDS011;42288;52.182;21.156;2022-08-19T07:13:55;15.25;;;9.40;;
16979;SDS011;42288;52.182;21.156;2022-08-19T07:16:21;16.70;;;9.40;;
16979;SDS011;42288;52.182;21.156;2022-08-19T07:18:47;19.50;;;9.93;;
16979;SDS011;42288;52.182;21.156;2022-08-19T07:21:14;15.93;;;9.27;;
16979;SDS011;42288;52.182;21.156;2022-08-19T07:23:46;14.50;;;8.82;;
16979;SDS011;42288;52.182;21.156;2022-08-19T07:26:13;18.47;;;9.63;;
16979;SDS011;42288;52.182;21.156;2022-08-19T07:28:47;15.48;;;9.38;;
16979;SDS011;42288;52.182;21.156;2022-08-19T07:31:14;18.48;;;10.30;;
16979;SDS011;42288;52.182;21.156;2022-08-19T07:33:46;16.40;;;9.60;;
16979;SDS011;42288;52.182;21.156;2022-08-19T07:36:14;14.53;;;9.10;;
16979;SDS011;42288;52.182;21.156;2022-08-19T07:38:42;17.73;;;9.85;;
16979;SDS011;42288;52.182;21.156;2022-08-19T07:41:14;13.98;;;9.13;;
16979;SDS011;42288;52.182;21.156;2022-08-19T07:43:42;20.08;;;9.23;;
16979;SDS011;42288;52.182;21.156;2022-08-19T07:46:08;14.30;;;9.48;;
16979;SDS011;42288;52.182;21.156;2022-08-19T07:48:35;11.43;;;9.00;;
16979;SDS011;42288;52.182;21.156;2022-08-19T07:51:01;15.60;;;10.00;;
16979;SDS011;42288;52.182;21.156;2022-08-19T07:53:29;15.55;;;8.85;;
16979;SDS011;42288;52.182;21.156;2022-08-19T07:55:57;15.27;;;8.75;;
16979;SDS011;42288;52.182;21.156;2022-08-19T07:58:26;18.23;;;8.85;;
16979;SDS011;42288;52.182;21.156;2022-08-19T08:00:52;14.07;;;8.77;;
16979;SDS011;42288;52.182;21.156;2022-08-19T08:03:19;13.25;;;8.25;;
16979;SDS011;42288;52.182;21.156;2022-08-19T08:05:45;15.10;;;8.50;;
16979;SDS011;42288;52.182;21.156;2022-08-19T08:08:29;13.95;;;8.40;;
16979;SDS011;42288;52.182;21.156;2022-08-19T08:11:15;14.35;;;8.45;;
16979;SDS011;42288;52.182;21.156;2022-08-19T08:13:42;11.68;;;8.52;;
16979;SDS011;42288;52.182;21.156;2022-08-19T08:16:08;10.65;;;8.55;;
16979;SDS011;42288;52.182;21.156;2022-08-19T08:18:34;15.82;;;8.68;;
16979;SDS011;42288;52.182;21.156;2022-08-19T08:21:06;11.25;;;7.43;;
16979;SDS011;42288;52.182;21.156;2022-08-19T08:23:32;11.55;;;8.48;;
16979;SDS011;42288;52.182;21.156;2022-08-19T08:25:59;15.48;;;8.07;;
16979;SDS011;42288;52.182;21.156;2022-08-19T08:28:25;12.48;;;8.60;;
16979;SDS011;42288;52.182;21.156;2022-08-19T08:30:52;18.42;;;8.77;;
16979;SDS011;42288;52.182;21.156;2022-08-19T08:33:19;13.95;;;7.97;;
16979;SDS011;42288;52.182;21.156;2022-08-19T08:35:46;16.15;;;8.18;;
16979;SDS011;42288;52.182;21.156;2022-08-19T08:38:13;17.25;;;8.48;;
16979;SDS011;42288;52.182;21.156;2022-08-19T08:40:50;13.13;;;7.82;;
16979;SDS011;42288;52.182;21.156;2022-08-19T08:51:20;15.15;;;8.43;;
16979;SDS011;42288;52.182;21.156;2022-08-19T08:53:49;14.13;;;8.23;;
16979;SDS011;42288;52.182;21.156;2022-08-19T08:56:18;10.75;;;8.07;;
16979;SDS011;42288;52.182;21.156;2022-08-19T08:58:48;14.52;;;8.35;;
16979;SDS011;42288;52.182;21.156;2022-08-19T09:01:24;13.93;;;8.43;;
16979;SDS011;42288;52.182;21.156;2022-08-19T09:03:50;16.27;;;8.13;;
16979;SDS011;42288;52.182;21.156;2022-08-19T09:09:05;13.80;;;8.05;;
16979;SDS011;42288;52.182;21.156;2022-08-19T09:17:00;9.20;;;7.78;;
16979;SDS011;42288;52.182;21.156;2022-08-19T09:19:28;12.18;;;7.47;;
16979;SDS011;42288;52.182;21.156;2022-08-19T09:21:54;13.90;;;8.00;;
16979;SDS011;42288;52.182;21.156;2022-08-19T09:24:20;16.30;;;7.32;;
16979;SDS011;42288;52.182;21.156;2022-08-19T09:26:45;12.15;;;7.80;;
16979;SDS011;42288;52.182;21.156;2022-08-19T09:29:11;12.40;;;7.57;;
16979;SDS011;42288;52.182;21.156;2022-08-19T09:31:37;20.55;;;8.07;;
16979;SDS011;42288;52.182;21.156;2022-08-19T09:34:03;18.65;;;7.60;;
16979;SDS011;42288;52.182;21.156;2022-08-19T09:36:29;16.67;;;7.80;;
16979;SDS011;42288;52.182;21.156;2022-08-19T09:38:58;13.07;;;7.38;;
16979;SDS011;42288;52.182;21.156;2022-08-19T09:41:25;21.92;;;7.55;;
16979;SDS011;42288;52.182;21.156;2022-08-19T09:43:51;12.88;;;6.80;;
16979;SDS011;42288;52.182;21.156;2022-08-19T09:46:21;15.02;;;7.85;;
16979;SDS011;42288;52.182;21.156;2022-08-19T09:48:48;17.13;;;6.88;;
16979;SDS011;42288;52.182;21.156;2022-08-19T09:51:16;11.32;;;6.75;;
16979;SDS011;42288;52.182;21.156;2022-08-19T09:53:44;13.40;;;7.47;;
16979;SDS011;42288;52.182;21.156;2022-08-19T09:56:12;14.20;;;7.38;;
16979;SDS011;42288;52.182;21.156;2022-08-19T09:58:38;12.15;;;7.45;;
16979;SDS011;42288;52.182;21.156;2022-08-19T10:01:05;10.48;;;7.28;;
16979;SDS011;42288;52.182;21.156;2022-08-19T10:03:32;29.45;;;8.25;;
16979;SDS011;42288;52.182;21.156;2022-08-19T10:05:59;9.48;;;6.72;;
16979;SDS011;42288;52.182;21.156;2022-08-19T10:08:30;12.38;;;6.60;;
16979;SDS011;42288;52.182;21.156;2022-08-19T10:10:58;15.57;;;6.90;;
16979;SDS011;42288;52.182;21.156;2022-08-19T10:13:25;14.10;;;6.43;;
16979;SDS011;42288;52.182;21.156;2022-08-19T10:15:52;14.32;;;6.70;;
16979;SDS011;42288;52.182;21.156;2022-08-19T10:18:20;12.38;;;6.60;;
16979;SDS011;42288;52.182;21.156;2022-08-19T10:20:47;16.98;;;7.20;;
16979;SDS011;42288;52.182;21.156;2022-08-19T10:23:13;18.98;;;6.68;;
16979;SDS011;42288;52.182;21.156;2022-08-19T10:25:40;10.23;;;6.18;;
16979;SDS011;42288;52.182;21.156;2022-08-19T10:28:06;13.55;;;6.78;;
16979;SDS011;42288;52.182;21.156;2022-08-19T10:30:32;12.95;;;6.38;;
16979;SDS011;42288;52.182;21.156;2022-08-19T10:32:58;13.85;;;6.00;;
16979;SDS011;42288;52.182;21.156;2022-08-19T10:35:24;13.93;;;5.68;;
16979;SDS011;42288;52.182;21.156;2022-08-19T10:37:52;15.20;;;5.88;;
16979;SDS011;42288;52.182;21.156;2022-08-19T10:40:18;15.32;;;6.03;;
16979;SDS011;42288;52.182;21.156;2022-08-19T10:42:43;10.38;;;6.05;;
16979;SDS011;42288;52.182;21.156;2022-08-19T10:45:09;16.20;;;6.22;;
16979;SDS011;42288;52.182;21.156;2022-08-19T10:47:35;8.30;;;5.90;;
16979;SDS011;42288;52.182;21.156;2022-08-19T10:50:01;9.20;;;5.32;;
16979;SDS011;42288;52.182;21.156;2022-08-19T10:52:47;9.70;;;5.00;;
16979;SDS011;42288;52.182;21.156;2022-08-19T10:55:14;12.02;;;5.95;;
16979;SDS011;42288;52.182;21.156;2022-08-19T10:57:58;12.63;;;5.60;;
16979;SDS011;42288;52.182;21.156;2022-08-19T11:00:24;9.65;;;5.80;;
16979;SDS011;42288;52.182;21.156;2022-08-19T11:02:50;9.98;;;5.13;;
16979;SDS011;42288;52.182;21.156;2022-08-19T11:05:16;8.38;;;5.20;;
16979;SDS011;42288;52.182;21.156;2022-08-19T11:07:42;13.23;;;5.50;;
16979;SDS011;42288;52.182;21.156;2022-08-19T11:10:09;9.82;;;5.80;;
16979;SDS011;42288;52.182;21.156;2022-08-19T11:12:37;13.30;;;5.15;;
16979;SDS011;42288;52.182;21.156;2022-08-19T11:15:04;12.32;;;5.57;;
16979;SDS011;42288;52.182;21.156;2022-08-19T11:17:35;12.20;;;5.80;;
16979;SDS011;42288;52.182;21.156;2022-08-19T11:20:01;10.07;;;5.30;;
16979;SDS011;42288;52.182;21.156;2022-08-19T11:22:29;11.55;;;5.90;;
16979;SDS011;42288;52.182;21.156;2022-08-19T11:24:55;11.90;;;5.70;;
16979;SDS011;42288;52.182;21.156;2022-08-19T11:27:20;13.02;;;5.40;;
16979;SDS011;42288;52.182;21.156;2022-08-19T11:29:46;9.10;;;5.47;;
16979;SDS011;42288;52.182;21.156;2022-08-19T11:32:12;9.90;;;5.95;;
16979;SDS011;42288;52.182;21.156;2022-08-19T11:34:37;11.13;;;5.22;;
16979;SDS011;42288;52.182;21.156;2022-08-19T11:37:04;11.05;;;5.72;;
16979;SDS011;42288;52.182;21.156;2022-08-19T11:39:31;10.48;;;5.63;;
16979;SDS011;42288;52.182;21.156;2022-08-19T11:42:01;11.68;;;5.47;;
16979;SDS011;42288;52.182;21.156;2022-08-19T11:44:28;10.68;;;4.85;;
16979;SDS011;42288;52.182;21.156;2022-08-19T11:46:55;9.40;;;5.93;;
16979;SDS011;42288;52.182;21.156;2022-08-19T11:49:21;12.18;;;5.60;;
16979;SDS011;42288;52.182;21.156;2022-08-19T11:51:47;8.25;;;5.18;;
16979;SDS011;42288;52.182;21.156;2022-08-19T11:54:15;10.95;;;5.78;;
16979;SDS011;42288;52.182;21.156;2022-08-19T11:56:42;14.70;;;5.65;;
16979;SDS011;42288;52.182;21.156;2022-08-19T11:59:08;12.63;;;5.57;;
16979;SDS011;42288;52.182;21.156;2022-08-19T12:01:35;10.18;;;5.55;;
16979;SDS011;42288;52.182;21.156;2022-08-19T12:04:00;9.27;;;5.47;;
16979;SDS011;42288;52.182;21.156;2022-08-19T12:06:29;12.00;;;5.65;;
16979;SDS011;42288;52.182;21.156;2022-08-19T12:08:57;7.35;;;5.00;;
16979;SDS011;42288;52.182;21.156;2022-08-19T12:11:23;12.40;;;5.80;;
16979;SDS011;42288;52.182;21.156;2022-08-19T12:13:49;11.02;;;5.80;;
16979;SDS011;42288;52.182;21.156;2022-08-19T12:16:18;11.93;;;6.03;;
16979;SDS011;42288;52.182;21.156;2022-08-19T12:18:45;13.52;;;5.22;;
16979;SDS011;42288;52.182;21.156;2022-08-19T12:21:11;10.20;;;5.47;;
16979;SDS011;42288;52.182;21.156;2022-08-19T12:23:41;17.38;;;5.65;;
16979;SDS011;42288;52.182;21.156;2022-08-19T12:26:09;12.60;;;5.65;;
16979;SDS011;42288;52.182;21.156;2022-08-19T12:28:35;14.45;;;6.13;;
16979;SDS011;42288;52.182;21.156;2022-08-19T12:31:01;13.43;;;5.80;;
16979;SDS011;42288;52.182;21.156;2022-08-19T12:33:27;13.02;;;6.13;;
16979;SDS011;42288;52.182;21.156;2022-08-19T12:35:53;12.68;;;5.20;;
16979;SDS011;42288;52.182;21.156;2022-08-19T12:38:24;12.55;;;5.55;;
16979;SDS011;42288;52.182;21.156;2022-08-19T12:40:49;11.48;;;5.75;;
16979;SDS011;42288;52.182;21.156;2022-08-19T12:43:16;14.07;;;5.30;;
16979;SDS011;42288;52.182;21.156;2022-08-19T12:45:43;10.98;;;5.50;;
16979;SDS011;42288;52.182;21.156;2022-08-19T12:48:09;10.93;;;5.53;;
16979;SDS011;42288;52.182;21.156;2022-08-19T12:50:35;15.25;;;5.65;;
16979;SDS011;42288;52.182;21.156;2022-08-19T12:53:00;11.32;;;5.25;;
16979;SDS011;42288;52.182;21.156;2022-08-19T12:55:26;11.63;;;5.47;;
16979;SDS011;42288;52.182;21.156;2022-08-19T12:57:53;7.03;;;5.13;;
16979;SDS011;42288;52.182;21.156;2022-08-19T13:00:20;10.93;;;5.47;;
16979;SDS011;42288;52.182;21.156;2022-08-19T13:02:47;16.83;;;5.40;;
16979;SDS011;42288;52.182;21.156;2022-08-19T13:05:17;10.93;;;5.28;;
16979;SDS011;42288;52.182;21.156;2022-08-19T13:07:45;9.60;;;5.20;;
16979;SDS011;42288;52.182;21.156;2022-08-19T13:10:14;11.65;;;5.57;;
16979;SDS011;42288;52.182;21.156;2022-08-19T13:12:42;12.63;;;5.18;;
16979;SDS011;42288;52.182;21.156;2022-08-19T13:15:09;10.40;;;5.05;;
16979;SDS011;42288;52.182;21.156;2022-08-19T13:17:36;13.88;;;4.95;;
16979;SDS011;42288;52.182;21.156;2022-08-19T13:20:02;10.70;;;5.38;;
16979;SDS011;42288;52.182;21.156;2022-08-19T13:22:29;16.60;;;5.22;;
16979;SDS011;42288;52.182;21.156;2022-08-19T13:24:55;11.82;;;5.38;;
16979;SDS011;42288;52.182;21.156;2022-08-19T13:27:20;10.82;;;5.20;;
16979;SDS011;42288;52.182;21.156;2022-08-19T13:29:46;11.63;;;5.05;;
16979;SDS011;42288;52.182;21.156;2022-08-19T13:32:30;13.38;;;5.40;;
16979;SDS011;42288;52.182;21.156;2022-08-19T13:35:14;10.45;;;5.22;;
16979;SDS011;42288;52.182;21.156;2022-08-19T13:37:41;14.77;;;5.35;;
16979;SDS011;42288;52.182;21.156;2022-08-19T13:40:07;11.25;;;5.15;;
16979;SDS011;42288;52.182;21.156;2022-08-19T13:42:40;12.60;;;5.40;;
16979;SDS011;42288;52.182;21.156;2022-08-19T13:45:07;7.93;;;4.35;;
16979;SDS011;42288;52.182;21.156;2022-08-19T13:47:34;16.95;;;5.75;;
16979;SDS011;42288;52.182;21.156;2022-08-19T13:50:00;11.82;;;5.10;;
16979;SDS011;42288;52.182;21.156;2022-08-19T13:52:28;12.65;;;4.72;;
16979;SDS011;42288;52.182;21.156;2022-08-19T13:54:54;10.82;;;5.32;;
16979;SDS011;42288;52.182;21.156;2022-08-19T13:57:19;9.65;;;4.50;;
16979;SDS011;42288;52.182;21.156;2022-08-19T13:59:45;8.77;;;4.70;;
16979;SDS011;42288;52.182;21.156;2022-08-19T14:02:11;9.90;;;4.90;;
16979;SDS011;42288;52.182;21.156;2022-08-19T14:04:36;10.32;;;4.72;;
16979;SDS011;42288;52.182;21.156;2022-08-19T14:07:02;8.23;;;4.90;;
16979;SDS011;42288;52.182;21.156;2022-08-19T14:09:28;13.05;;;5.00;;
16979;SDS011;42288;52.182;21.156;2022-08-19T14:11:54;11.40;;;4.82;;
16979;SDS011;42288;52.182;21.156;2022-08-19T14:14:20;11.40;;;4.68;;
16979;SDS011;42288;52.182;21.156;2022-08-19T14:16:46;9.93;;;5.28;;
16979;SDS011;42288;52.182;21.156;2022-08-19T14:19:12;7.68;;;4.72;;
16979;SDS011;42288;52.182;21.156;2022-08-19T14:21:37;8.80;;;5.03;;
16979;SDS011;42288;52.182;21.156;2022-08-19T14:24:04;10.63;;;5.03;;
16979;SDS011;42288;52.182;21.156;2022-08-19T14:26:29;11.93;;;5.10;;
16979;SDS011;42288;52.182;21.156;2022-08-19T14:28:55;7.78;;;4.90;;
16979;SDS011;42288;52.182;21.156;2022-08-19T14:31:22;11.02;;;4.88;;
16979;SDS011;42288;52.182;21.156;2022-08-19T14:33:48;11.77;;;4.80;;
16979;SDS011;42288;52.182;21.156;2022-08-19T14:36:15;11.20;;;4.63;;
16979;SDS011;42288;52.182;21.156;2022-08-19T14:38:41;14.82;;;4.45;;
16979;SDS011;42288;52.182;21.156;2022-08-19T14:41:14;8.18;;;4.22;;
16979;SDS011;42288;52.182;21.156;2022-08-19T14:43:43;8.10;;;4.30;;
16979;SDS011;42288;52.182;21.156;2022-08-19T14:46:11;10.23;;;4.45;;
16979;SDS011;42288;52.182;21.156;2022-08-19T14:48:40;10.35;;;4.88;;
16979;SDS011;42288;52.182;21.156;2022-08-19T14:51:06;8.90;;;4.28;;
16979;SDS011;42288;52.182;21.156;2022-08-19T14:53:32;12.30;;;5.00;;
16979;SDS011;42288;52.182;21.156;2022-08-19T14:55:58;11.27;;;4.82;;
16979;SDS011;42288;52.182;21.156;2022-08-19T14:58:25;6.97;;;4.50;;
16979;SDS011;42288;52.182;21.156;2022-08-19T15:00:51;12.48;;;5.00;;